Terminal Aerodrome Forecast
Issued by NWS Northern Indiana

Home | Current Version | Previous Version | Graphics & Text | Print | Product List | Glossary On
Versions: 1 2 3 4 5 6 7 8 9 10 11 12 13 14
000
FTUS43 KIWX 232000 AAA
TAFFWA
TAF AMD
KFWA 232036Z 2321/2418 14010KT 4SM RA BR SCT015 OVC020
      WS020/16050KT
      TEMPO 2321/2323 2SM +RA BR OVC010
     FM232300 12011KT 3SM RA BR OVC008 WS020/16055KT
      TEMPO 2401/2405 2SM +RA BR OVC004
     FM240500 17013G20KT 5SM -RA BR OVC005
     FM240800 22015G23KT 5SM -RA BR OVC006
     FM241500 24024G34KT P6SM OVC010=

USA.gov is the U.S. government's official web portal to all federal, state and local government web resources and services.